createdAt,value
2023-06-23T00:03:24.044Z,48.32
2023-06-23T00:08:26.511Z,48.47
2023-06-23T00:13:28.936Z,48.18
2023-06-23T00:18:32.866Z,48.70
2023-06-23T00:23:36.306Z,48.50
2023-06-23T00:28:38.930Z,48.48
2023-06-23T00:33:43.542Z,48.57
2023-06-23T00:38:46.239Z,48.64
2023-06-23T00:43:54.664Z,48.86
2023-06-23T00:48:57.220Z,49.21
2023-06-23T00:53:59.966Z,49.63
2023-06-23T00:59:04.100Z,50.40
2023-06-23T01:04:06.683Z,51.07
2023-06-23T01:09:17.099Z,51.64
2023-06-23T01:14:24.933Z,51.79
2023-06-23T01:20:26.102Z,51.29
2023-06-23T01:25:49.092Z,51.12
2023-06-23T01:30:56.236Z,51.14
2023-06-23T01:36:09.890Z,51.65
2023-06-23T01:41:25.693Z,51.41
2023-06-23T01:46:36.498Z,51.37
2023-06-23T01:51:44.652Z,51.64
2023-06-23T01:56:48.175Z,51.58
2023-06-23T02:01:52.027Z,51.54
2023-06-23T02:06:55.219Z,51.25
2023-06-23T02:11:59.098Z,52.15
2023-06-23T02:17:03.141Z,52.41
2023-06-23T02:22:10.194Z,52.61
2023-06-23T02:27:13.780Z,52.31
2023-06-23T02:32:18.658Z,52.78
2023-06-23T02:37:25.060Z,53.01
2023-06-23T02:42:34.748Z,53.44
2023-06-23T02:47:39.408Z,53.22
2023-06-23T02:52:46.529Z,53.61
2023-06-23T02:57:51.468Z,53.87
2023-06-23T03:02:59.035Z,53.94
2023-06-23T03:08:02.885Z,53.78
2023-06-23T03:13:05.438Z,53.78
2023-06-23T03:18:18.735Z,54.47
2023-06-23T03:23:26.640Z,54.15
2023-06-23T03:28:30.932Z,54.34
2023-06-23T03:33:37.183Z,55.00
2023-06-23T03:38:45.986Z,55.03
2023-06-23T03:43:52.493Z,53.30
2023-06-23T03:48:58.056Z,54.61
2023-06-23T03:54:02.060Z,54.76
2023-06-23T03:59:05.292Z,55.03
2023-06-23T04:04:09.253Z,55.69
2023-06-23T04:09:12.104Z,55.82
2023-06-23T04:14:15.323Z,56.54
2023-06-23T04:19:19.506Z,58.18
2023-06-23T04:24:23.078Z,58.40
2023-06-23T04:29:27.448Z,60.35
2023-06-23T04:34:30.141Z,60.16
2023-06-23T04:39:48.931Z,62.43
2023-06-23T04:44:54.805Z,61.84
2023-06-23T04:50:00.264Z,62.44
2023-06-23T04:55:04.531Z,62.48
2023-06-23T05:00:09.178Z,62.81
2023-06-23T05:05:12.622Z,62.90
2023-06-23T05:10:15.310Z,63.34
2023-06-23T05:15:19.418Z,63.67
2023-06-23T05:20:22.671Z,64.02
2023-06-23T05:25:31.494Z,64.31
2023-06-23T05:30:34.305Z,63.19
2023-06-23T05:35:38.671Z,64.57
2023-06-23T05:40:41.332Z,64.93
2023-06-23T05:45:44.506Z,64.90
2023-06-23T05:50:49.006Z,66.12
2023-06-23T05:56:02.332Z,68.08
2023-06-23T06:01:09.677Z,68.42
2023-06-23T06:06:12.937Z,67.97
2023-06-23T06:11:18.361Z,68.31
2023-06-23T06:16:21.324Z,68.29
2023-06-23T06:21:24.194Z,68.54
2023-06-23T06:26:27.119Z,69.23
2023-06-23T06:31:30.693Z,69.62
2023-06-23T06:36:34.481Z,70.17
2023-06-23T06:41:37.672Z,70.04
2023-06-23T06:46:42.228Z,70.36
2023-06-23T06:51:45.782Z,70.49
2023-06-23T06:56:48.256Z,70.60
2023-06-23T07:01:51.230Z,71.19
2023-06-23T07:06:55.328Z,70.71
2023-06-23T07:12:00.859Z,72.29
2023-06-23T07:17:03.368Z,71.74
2023-06-23T07:22:06.274Z,71.53
2023-06-23T07:27:09.715Z,72.04
2023-06-23T07:32:13.208Z,71.83
2023-06-23T07:37:15.902Z,72.14
2023-06-23T07:42:18.407Z,71.79
2023-06-23T07:47:21.139Z,72.16
2023-06-23T07:52:23.662Z,72.21
2023-06-23T07:57:26.786Z,72.26
2023-06-23T08:02:29.345Z,72.42
2023-06-23T08:07:32.032Z,72.41
2023-06-23T08:12:34.781Z,73.39
2023-06-23T08:17:37.516Z,73.30
2023-06-23T08:22:41.996Z,73.26
2023-06-23T08:27:44.629Z,73.32
2023-06-23T08:32:47.092Z,73.61
2023-06-23T08:37:49.829Z,73.55
2023-06-23T08:42:52.369Z,73.89
2023-06-23T08:47:58.264Z,74.57
2023-06-23T08:53:01.050Z,74.27
2023-06-23T08:58:04.095Z,74.45
2023-06-23T09:03:06.775Z,74.17
2023-06-23T09:08:10.393Z,74.28
2023-06-23T09:13:24.674Z,75.11
2023-06-23T09:18:27.217Z,74.66
2023-06-23T09:23:35.123Z,74.93
2023-06-23T09:28:38.580Z,74.82
2023-06-23T09:33:49.400Z,75.54
2023-06-23T09:38:54.246Z,74.59
2023-06-23T09:43:58.965Z,74.63
2023-06-23T09:49:02.171Z,74.54
2023-06-23T09:54:08.041Z,74.51
2023-06-23T09:59:10.508Z,74.86
2023-06-23T10:04:13.101Z,74.21
2023-06-23T10:09:16.672Z,74.65
2023-06-23T10:14:19.892Z,74.74
2023-06-23T10:19:22.629Z,74.76
2023-06-23T10:24:25.325Z,75.08
2023-06-23T10:29:29.170Z,74.98
2023-06-23T10:34:33.273Z,75.08
2023-06-23T10:39:37.313Z,74.86
2023-06-23T10:44:43.028Z,75.41
2023-06-23T10:49:46.648Z,75.01
2023-06-23T10:54:49.304Z,75.45
2023-06-23T11:00:07.419Z,76.28
2023-06-23T11:05:18.162Z,75.54
2023-06-23T11:10:22.094Z,75.11
2023-06-23T11:15:26.901Z,74.48
2023-06-23T11:20:31.432Z,74.65
2023-06-23T11:25:51.286Z,74.89
2023-06-23T11:31:05.404Z,74.92
2023-06-23T11:36:17.164Z,75.63
2023-06-23T11:41:27.324Z,75.34
2023-06-23T11:46:34.367Z,74.95
2023-06-23T11:51:36.980Z,74.27
2023-06-23T11:56:43.011Z,73.98
2023-06-23T12:01:45.690Z,73.72
2023-06-23T12:06:48.943Z,73.61
2023-06-23T12:11:53.127Z,73.63
2023-06-23T12:17:12.782Z,74.30
2023-06-23T12:22:19.750Z,73.80
2023-06-23T12:27:26.585Z,72.61
2023-06-23T12:32:32.550Z,73.06
2023-06-23T12:37:47.064Z,72.39
2023-06-23T12:42:49.644Z,71.95
2023-06-23T12:47:58.887Z,72.29
2023-06-23T12:53:01.477Z,72.12
2023-06-23T12:58:04.091Z,71.49
2023-06-23T13:03:08.679Z,71.58
2023-06-23T13:08:15.113Z,70.92
2023-06-23T13:13:17.666Z,70.83
2023-06-23T13:18:20.203Z,70.13
2023-06-23T13:23:22.771Z,69.99
2023-06-23T13:28:25.404Z,70.13
2023-06-23T13:33:27.979Z,69.65
2023-06-23T13:38:30.434Z,69.08
2023-06-23T13:43:32.902Z,68.94
2023-06-23T13:48:35.473Z,68.40
2023-06-23T13:53:39.989Z,68.65
2023-06-23T13:58:42.482Z,68.08
2023-06-23T14:03:45.164Z,68.45
2023-06-23T14:08:49.931Z,67.50
2023-06-23T14:13:52.581Z,67.70
2023-06-23T14:18:55.223Z,67.80
2023-06-23T14:23:57.708Z,67.00
2023-06-23T14:29:00.345Z,66.99
2023-06-23T14:34:04.712Z,66.95
2023-06-23T14:39:08.662Z,66.29
2023-06-23T14:44:11.095Z,66.12
2023-06-23T14:49:13.679Z,66.06
2023-06-23T14:54:16.171Z,65.69
2023-06-23T14:59:18.712Z,65.58
2023-06-23T15:04:21.256Z,65.40
2023-06-23T15:09:23.829Z,65.48
2023-06-23T15:14:26.393Z,65.11
2023-06-23T15:19:28.869Z,65.28
2023-06-23T15:24:31.426Z,65.17
2023-06-23T15:29:33.906Z,64.85
2023-06-23T15:34:36.445Z,65.23
2023-06-23T15:39:42.280Z,65.20
2023-06-23T15:44:45.885Z,65.19
2023-06-23T15:49:48.584Z,65.49
2023-06-23T15:54:51.409Z,65.64
2023-06-23T15:59:54.010Z,65.33
2023-06-23T16:04:56.680Z,65.90
2023-06-23T16:09:59.345Z,65.70
2023-06-23T16:15:01.768Z,65.70
2023-06-23T16:20:08.042Z,65.36
2023-06-23T16:25:10.479Z,65.42
2023-06-23T16:30:12.952Z,65.42
2023-06-23T16:35:15.425Z,65.26
2023-06-23T16:40:17.936Z,65.19
2023-06-23T16:45:20.369Z,65.97
2023-06-23T16:50:22.889Z,65.93
2023-06-23T16:55:25.280Z,65.96
2023-06-23T17:00:29.563Z,66.02
2023-06-23T17:05:32.157Z,66.37
2023-06-23T17:10:34.913Z,66.92
2023-06-23T17:15:37.440Z,67.04
2023-06-23T17:20:39.865Z,66.67
2023-06-23T17:25:42.428Z,66.51
2023-06-23T17:30:46.159Z,66.60
2023-06-23T17:35:48.677Z,66.96
2023-06-23T17:40:51.163Z,66.48
2023-06-23T17:45:53.568Z,66.83
2023-06-23T17:50:56.016Z,67.42
2023-06-23T17:56:00.746Z,67.84
2023-06-23T18:01:04.714Z,68.13
2023-06-23T18:06:07.432Z,67.95
2023-06-23T18:11:10.405Z,68.22
2023-06-23T18:16:12.930Z,68.29
2023-06-23T18:21:17.725Z,68.34
2023-06-23T18:26:20.321Z,68.67
2023-06-23T18:31:22.857Z,68.82
2023-06-23T18:36:25.386Z,68.88
2023-06-23T18:41:27.890Z,69.43
2023-06-23T18:46:31.956Z,69.27
2023-06-23T18:51:39.411Z,69.29
2023-06-23T18:56:42.315Z,69.74
2023-06-23T19:01:44.843Z,70.09
2023-06-23T19:06:47.453Z,70.22
2023-06-23T19:11:50.003Z,70.61
2023-06-23T19:16:52.492Z,70.85
2023-06-23T19:21:57.585Z,70.60
2023-06-23T19:26:59.980Z,71.00
2023-06-23T19:32:02.676Z,71.24
2023-06-23T19:37:05.628Z,71.53
2023-06-23T19:42:08.487Z,71.13
2023-06-23T19:47:11.252Z,71.71
2023-06-23T19:52:16.411Z,71.57
2023-06-23T19:57:18.918Z,72.02
2023-06-23T20:02:22.083Z,71.79
2023-06-23T20:07:24.929Z,72.11
2023-06-23T20:12:27.585Z,72.26
2023-06-23T20:17:30.204Z,72.38
2023-06-23T20:22:32.709Z,72.34
2023-06-23T20:27:35.224Z,72.55
2023-06-23T20:32:39.860Z,72.83
2023-06-23T20:37:42.816Z,72.57
2023-06-23T20:42:45.226Z,72.75
2023-06-23T20:47:48.108Z,73.39
2023-06-23T20:52:55.895Z,73.30
2023-06-23T20:57:58.301Z,73.09
2023-06-23T21:03:00.817Z,73.32
2023-06-23T21:08:03.294Z,73.13
2023-06-23T21:13:05.866Z,73.41
2023-06-23T21:18:08.537Z,73.27
2023-06-23T21:23:13.244Z,73.28
2023-06-23T21:28:16.633Z,73.38
2023-06-23T21:33:19.090Z,73.52
2023-06-23T21:38:21.626Z,73.21
2023-06-23T21:43:24.037Z,73.14
2023-06-23T21:48:29.119Z,73.36
2023-06-23T21:53:31.548Z,73.53
2023-06-23T21:58:34.397Z,73.27
2023-06-23T22:03:38.305Z,73.15
2023-06-23T22:08:40.905Z,73.14
2023-06-23T22:13:43.276Z,73.11
2023-06-23T22:18:49.781Z,73.18
2023-06-23T22:23:52.886Z,73.41
2023-06-23T22:28:55.956Z,73.24
2023-06-23T22:33:58.390Z,73.17
2023-06-23T22:39:01.057Z,73.22
2023-06-23T22:44:03.516Z,73.25
2023-06-23T22:49:07.470Z,72.99
2023-06-23T22:54:09.843Z,73.38
2023-06-23T22:59:12.213Z,72.90
2023-06-23T23:04:14.957Z,72.66
2023-06-23T23:09:17.550Z,73.21
2023-06-23T23:14:20.412Z,73.53
2023-06-23T23:19:23.010Z,73.51
2023-06-23T23:24:25.368Z,74.01
2023-06-23T23:29:27.992Z,74.05
2023-06-23T23:34:33.613Z,73.81
2023-06-23T23:39:36.175Z,74.60
2023-06-23T23:44:38.567Z,74.76
2023-06-23T23:49:41.027Z,74.58
2023-06-23T23:54:43.396Z,74.74
2023-06-23T23:59:46.283Z,74.61
